createdAt,value
2023-05-06T00:00:14.767Z,9.60
2023-05-06T00:03:01.840Z,7.30
2023-05-06T00:05:29.105Z,9.57
2023-05-06T00:07:55.986Z,8.38
2023-05-06T00:10:23.154Z,6.97
2023-05-06T00:12:50.169Z,7.45
2023-05-06T00:15:17.210Z,11.80
2023-05-06T00:17:43.985Z,6.60
2023-05-06T00:20:11.579Z,7.07
2023-05-06T00:22:38.471Z,10.20
2023-05-06T00:25:06.015Z,8.30
2023-05-06T00:27:33.726Z,8.95
2023-05-06T00:30:00.796Z,7.72
2023-05-06T00:32:27.563Z,6.88
2023-05-06T00:34:54.754Z,9.93
2023-05-06T00:37:21.537Z,8.23
2023-05-06T00:39:48.718Z,7.10
2023-05-06T00:42:15.774Z,7.45
2023-05-06T00:44:43.059Z,7.72
2023-05-06T00:47:10.673Z,7.40
2023-05-06T00:49:37.823Z,6.93
2023-05-06T00:52:04.889Z,7.68
2023-05-06T00:54:32.186Z,7.57
2023-05-06T00:56:59.166Z,11.85
2023-05-06T00:59:26.228Z,7.60
2023-05-06T01:01:53.985Z,6.70
2023-05-06T01:04:24.104Z,6.97
2023-05-06T01:07:01.978Z,7.63
2023-05-06T01:10:00.188Z,6.75
2023-05-06T01:12:44.121Z,6.97
2023-05-06T01:15:26.002Z,7.05
2023-05-06T01:17:54.784Z,10.15
2023-05-06T01:20:23.281Z,7.90
2023-05-06T01:22:50.877Z,7.05
2023-05-06T01:25:20.288Z,7.10
2023-05-06T01:27:47.154Z,7.68
2023-05-06T01:30:28.864Z,8.18
2023-05-06T01:33:30.462Z,7.80
2023-05-06T01:36:27.508Z,6.82
2023-05-06T01:39:24.501Z,7.82
2023-05-06T01:41:53.890Z,9.05
2023-05-06T01:44:23.001Z,6.45
2023-05-06T01:46:51.614Z,8.60
2023-05-06T01:49:20.294Z,8.07
2023-05-06T01:51:48.755Z,8.43
2023-05-06T01:54:15.668Z,8.80
2023-05-06T01:56:42.714Z,8.75
2023-05-06T01:59:09.681Z,7.75
2023-05-06T02:01:36.702Z,9.57
2023-05-06T02:04:04.306Z,7.85
2023-05-06T02:06:32.370Z,7.82
2023-05-06T02:08:59.122Z,5.95
2023-05-06T02:11:26.233Z,9.80
2023-05-06T02:13:53.398Z,7.05
2023-05-06T02:16:22.079Z,7.18
2023-05-06T02:18:49.025Z,10.57
2023-05-06T02:21:16.150Z,8.27
2023-05-06T02:23:42.962Z,10.25
2023-05-06T02:26:10.793Z,8.77
2023-05-06T02:28:37.944Z,11.43
2023-05-06T02:31:05.177Z,8.98
2023-05-06T02:33:32.274Z,8.68
2023-05-06T02:35:59.600Z,8.10
2023-05-06T02:38:26.910Z,9.40
2023-05-06T02:40:54.009Z,9.10
2023-05-06T02:43:20.788Z,8.15
2023-05-06T02:45:47.981Z,10.30
2023-05-06T02:48:14.757Z,8.32
2023-05-06T02:50:41.978Z,8.95
2023-05-06T02:53:10.605Z,11.95
2023-05-06T02:55:44.612Z,8.07
2023-05-06T02:58:11.594Z,11.07
2023-05-06T03:00:38.653Z,8.73
2023-05-06T03:03:05.644Z,10.63
2023-05-06T03:05:32.903Z,7.80
2023-05-06T03:08:01.078Z,12.68
2023-05-06T03:10:28.219Z,8.38
2023-05-06T03:12:55.200Z,9.32
2023-05-06T03:15:22.426Z,7.88
2023-05-06T03:18:09.585Z,7.38
2023-05-06T03:20:36.854Z,9.00
2023-05-06T03:23:03.850Z,6.93
2023-05-06T03:25:31.171Z,10.50
2023-05-06T03:27:58.060Z,8.98
2023-05-06T03:30:25.176Z,9.90
2023-05-06T03:32:52.052Z,14.25
2023-05-06T03:35:19.688Z,9.95
2023-05-06T03:37:46.423Z,7.55
2023-05-06T03:40:13.588Z,8.20
2023-05-06T03:42:40.406Z,9.80
2023-05-06T03:45:08.383Z,8.50
2023-05-06T03:47:35.761Z,8.68
2023-05-06T03:50:03.138Z,8.48
2023-05-06T03:52:30.491Z,8.45
2023-05-06T03:54:58.064Z,6.95
2023-05-06T03:57:25.024Z,9.10
2023-05-06T03:59:52.628Z,7.25
2023-05-06T04:02:19.673Z,8.30
2023-05-06T04:04:47.064Z,7.93
2023-05-06T04:07:13.947Z,11.52
2023-05-06T04:09:41.198Z,8.02
2023-05-06T04:12:08.328Z,9.90
2023-05-06T04:14:35.549Z,10.63
2023-05-06T04:17:02.537Z,7.63
2023-05-06T04:19:29.827Z,6.75
2023-05-06T04:21:56.669Z,6.72
2023-05-06T04:24:23.765Z,7.85
2023-05-06T04:26:50.575Z,7.45
2023-05-06T04:29:17.619Z,8.77
2023-05-06T04:31:44.447Z,7.40
2023-05-06T04:34:14.133Z,8.25
2023-05-06T04:36:41.047Z,9.45
2023-05-06T04:39:08.896Z,7.07
2023-05-06T04:41:36.596Z,9.57
2023-05-06T04:44:03.762Z,8.73
2023-05-06T04:46:30.594Z,9.13
2023-05-06T04:48:58.373Z,8.07
2023-05-06T04:51:25.295Z,8.50
2023-05-06T04:53:52.891Z,6.70
2023-05-06T04:56:19.661Z,8.18
2023-05-06T04:58:46.825Z,6.45
2023-05-06T05:01:13.750Z,8.85
2023-05-06T05:03:40.888Z,8.55
2023-05-06T05:06:07.869Z,7.95
2023-05-06T05:08:35.232Z,5.97
2023-05-06T05:11:01.979Z,8.50
2023-05-06T05:13:29.130Z,8.48
2023-05-06T05:15:56.200Z,6.63
2023-05-06T05:18:23.356Z,5.88
2023-05-06T05:20:50.134Z,8.63
2023-05-06T05:23:17.261Z,7.88
2023-05-06T05:25:44.226Z,7.25
2023-05-06T05:28:11.252Z,6.90
2023-05-06T05:30:38.084Z,9.30
2023-05-06T05:33:05.448Z,9.05
2023-05-06T05:35:32.339Z,9.27
2023-05-06T05:38:01.949Z,8.68
2023-05-06T05:40:28.886Z,7.65
2023-05-06T05:42:55.995Z,8.02
2023-05-06T05:45:22.894Z,8.52
2023-05-06T05:47:49.949Z,10.05
2023-05-06T05:50:16.944Z,9.80
2023-05-06T05:52:44.022Z,11.93
2023-05-06T05:55:11.114Z,10.20
2023-05-06T05:57:38.320Z,9.25
2023-05-06T06:00:06.444Z,12.50
2023-05-06T06:02:34.614Z,11.50
2023-05-06T06:05:01.612Z,9.40
2023-05-06T06:07:28.677Z,8.57
2023-05-06T06:09:55.799Z,12.60
2023-05-06T06:12:23.221Z,11.25
2023-05-06T06:14:50.782Z,11.80
2023-05-06T06:17:17.989Z,10.50
2023-05-06T06:19:47.733Z,9.15
2023-05-06T06:22:14.771Z,11.15
2023-05-06T06:24:41.498Z,9.63
2023-05-06T06:27:08.616Z,12.10
2023-05-06T06:29:35.718Z,10.82
2023-05-06T06:32:03.942Z,13.57
2023-05-06T06:34:30.819Z,13.32
2023-05-06T06:36:57.904Z,13.48
2023-05-06T06:39:24.832Z,11.27
2023-05-06T06:41:51.904Z,10.50
2023-05-06T06:44:18.701Z,10.02
2023-05-06T06:46:45.754Z,11.48
2023-05-06T06:49:12.520Z,9.70
2023-05-06T06:51:39.643Z,13.02
2023-05-06T06:54:06.760Z,13.38
2023-05-06T06:56:33.842Z,11.68
2023-05-06T06:59:00.673Z,11.00
2023-05-06T07:01:27.771Z,13.13
2023-05-06T07:03:54.694Z,10.60
2023-05-06T07:06:25.551Z,8.05
2023-05-06T07:08:52.351Z,11.07
2023-05-06T07:11:19.375Z,10.95
2023-05-06T07:13:46.229Z,9.63
2023-05-06T07:16:13.273Z,8.73
2023-05-06T07:18:40.049Z,9.68
2023-05-06T07:21:07.398Z,10.55
2023-05-06T07:23:34.098Z,8.25
2023-05-06T07:26:01.195Z,10.23
2023-05-06T07:28:28.008Z,8.57
2023-05-06T07:30:55.093Z,7.88
2023-05-06T07:33:21.947Z,8.18
2023-05-06T07:35:48.976Z,9.43
2023-05-06T07:38:15.780Z,8.45
2023-05-06T07:40:42.871Z,10.85
2023-05-06T07:43:09.816Z,6.68
2023-05-06T07:45:36.996Z,11.15
2023-05-06T07:48:03.876Z,7.55
2023-05-06T07:50:34.521Z,9.88
2023-05-06T07:53:01.797Z,8.45
2023-05-06T07:55:29.740Z,8.07
2023-05-06T07:57:56.586Z,9.02
2023-05-06T08:00:23.542Z,7.70
2023-05-06T08:02:50.512Z,8.73
2023-05-06T08:05:18.223Z,12.05
2023-05-06T08:07:45.223Z,8.88
2023-05-06T08:10:12.186Z,11.00
2023-05-06T08:12:39.039Z,11.55
2023-05-06T08:15:07.072Z,9.48
2023-05-06T08:17:33.855Z,8.82
2023-05-06T08:20:00.979Z,12.30
2023-05-06T08:22:27.777Z,10.77
2023-05-06T08:24:55.177Z,13.90
2023-05-06T08:27:22.016Z,11.27
2023-05-06T08:29:49.065Z,12.05
2023-05-06T08:32:16.005Z,12.68
2023-05-06T08:34:43.091Z,13.70
2023-05-06T08:37:10.081Z,13.13
2023-05-06T08:39:37.552Z,16.90
2023-05-06T08:42:05.523Z,13.75
2023-05-06T08:44:33.681Z,12.95
2023-05-06T08:47:00.561Z,13.73
2023-05-06T08:49:27.980Z,13.07
2023-05-06T08:51:55.313Z,13.32
2023-05-06T08:54:25.507Z,13.40
2023-05-06T08:56:53.863Z,14.50
2023-05-06T08:59:25.154Z,18.27
2023-05-06T09:01:53.290Z,11.15
2023-05-06T09:04:20.134Z,15.10
2023-05-06T09:06:47.250Z,15.68
2023-05-06T09:09:15.120Z,12.25
2023-05-06T09:11:43.449Z,11.40
2023-05-06T09:14:17.775Z,15.85
2023-05-06T09:16:47.705Z,13.70
2023-05-06T09:19:15.965Z,9.90
2023-05-06T09:21:46.114Z,13.27
2023-05-06T09:24:14.486Z,10.45
2023-05-06T09:26:43.634Z,10.63
2023-05-06T09:29:10.794Z,10.23
2023-05-06T09:31:45.444Z,11.52
2023-05-06T09:34:13.059Z,11.60
2023-05-06T09:36:40.320Z,13.60
2023-05-06T09:39:07.786Z,12.45
2023-05-06T09:41:35.969Z,12.88
2023-05-06T09:44:03.867Z,12.90
2023-05-06T09:46:31.457Z,12.20
2023-05-06T09:48:59.081Z,13.27
2023-05-06T09:51:28.600Z,14.25
2023-05-06T09:53:57.297Z,12.13
2023-05-06T09:56:25.296Z,13.27
2023-05-06T09:58:54.532Z,15.35
2023-05-06T10:01:35.405Z,14.27
2023-05-06T10:04:08.341Z,14.68
2023-05-06T10:06:37.040Z,17.73
2023-05-06T10:09:06.536Z,20.98
2023-05-06T10:11:33.647Z,16.45
2023-05-06T10:14:02.340Z,16.75
2023-05-06T10:16:30.022Z,36.58
2023-05-06T10:18:58.365Z,50.13
2023-05-06T10:21:27.742Z,90.40
2023-05-06T10:24:00.752Z,94.55
2023-05-06T10:26:31.100Z,74.13
2023-05-06T10:29:01.788Z,47.85
2023-05-06T10:34:00.468Z,41.88
2023-05-06T10:39:00.740Z,33.53
2023-05-06T10:41:29.240Z,39.75
2023-05-06T10:43:57.160Z,36.13
2023-05-06T10:46:26.972Z,33.25
2023-05-06T10:49:06.816Z,27.60
2023-05-06T10:51:41.280Z,30.92
2023-05-06T10:54:09.220Z,29.27
2023-05-06T10:56:36.941Z,25.02
2023-05-06T10:59:10.173Z,22.08
2023-05-06T11:01:41.633Z,20.38
2023-05-06T11:04:09.696Z,21.88
2023-05-06T11:06:48.301Z,25.02
2023-05-06T11:09:20.655Z,23.08
2023-05-06T11:11:54.671Z,24.63
2023-05-06T11:14:35.877Z,25.73
2023-05-06T11:17:26.992Z,22.20
2023-05-06T11:20:19.926Z,23.77
2023-05-06T11:22:47.154Z,26.33
2023-05-06T11:25:14.223Z,27.33
2023-05-06T11:27:42.006Z,22.88
2023-05-06T11:30:17.440Z,24.63
2023-05-06T11:32:46.772Z,20.60
2023-05-06T11:35:14.168Z,23.63
2023-05-06T11:37:42.728Z,23.52
2023-05-06T11:40:16.202Z,21.42
2023-05-06T11:42:43.417Z,23.60
2023-05-06T11:45:11.904Z,25.13
2023-05-06T11:47:43.563Z,26.10
2023-05-06T11:50:10.910Z,27.30
2023-05-06T11:52:38.559Z,30.33
2023-05-06T11:55:10.169Z,32.47
2023-05-06T11:57:44.695Z,28.58
2023-05-06T12:00:13.654Z,28.80
2023-05-06T12:02:41.510Z,26.83
2023-05-06T12:05:09.595Z,25.92
2023-05-06T12:07:37.338Z,23.27
2023-05-06T12:10:05.109Z,26.95
2023-05-06T12:12:33.562Z,25.00
2023-05-06T12:15:00.890Z,24.75
2023-05-06T12:17:28.229Z,23.35
2023-05-06T12:19:55.058Z,23.55
2023-05-06T12:22:24.672Z,26.70
2023-05-06T12:24:51.537Z,25.10
2023-05-06T12:27:35.580Z,22.67
2023-05-06T12:30:04.541Z,25.30
2023-05-06T12:32:32.084Z,22.52
2023-05-06T12:35:00.546Z,29.83
2023-05-06T12:37:29.759Z,34.97
2023-05-06T12:39:59.125Z,34.22
2023-05-06T12:42:26.941Z,32.22
2023-05-06T12:44:53.784Z,28.77
2023-05-06T12:47:25.609Z,20.88
2023-05-06T12:49:54.701Z,22.05
2023-05-06T12:52:23.877Z,22.38
2023-05-06T12:54:52.931Z,24.70
2023-05-06T12:57:20.744Z,24.17
2023-05-06T12:59:48.496Z,24.98
2023-05-06T13:02:16.167Z,26.27
2023-05-06T13:04:44.441Z,24.73
2023-05-06T13:07:19.738Z,23.65
2023-05-06T13:09:46.565Z,20.73
2023-05-06T13:12:13.576Z,23.15
2023-05-06T13:14:40.562Z,22.42
2023-05-06T13:17:08.525Z,21.38
2023-05-06T13:19:35.981Z,20.80
2023-05-06T13:22:03.076Z,21.25
2023-05-06T13:24:30.089Z,21.58
2023-05-06T13:26:59.452Z,23.95
2023-05-06T13:29:26.829Z,28.23
2023-05-06T13:31:54.644Z,28.83
2023-05-06T13:34:21.540Z,31.90
2023-05-06T13:36:49.690Z,28.65
2023-05-06T13:39:16.920Z,30.70
2023-05-06T13:41:46.734Z,38.20
2023-05-06T13:44:14.057Z,38.75
2023-05-06T13:46:42.486Z,39.00
2023-05-06T13:49:10.308Z,41.75
2023-05-06T13:51:37.478Z,43.95
2023-05-06T13:54:04.706Z,39.40
2023-05-06T13:56:31.924Z,35.33
2023-05-06T13:58:58.726Z,32.47
2023-05-06T14:01:25.897Z,28.35
2023-05-06T14:03:52.824Z,32.22
2023-05-06T14:06:20.479Z,34.22
2023-05-06T14:08:47.488Z,35.05
2023-05-06T14:11:14.623Z,42.45
2023-05-06T14:13:41.636Z,44.97
2023-05-06T14:16:09.125Z,41.22
2023-05-06T14:18:36.075Z,42.10
2023-05-06T14:21:03.709Z,45.00
2023-05-06T14:23:30.723Z,42.53
2023-05-06T14:25:57.949Z,45.55
2023-05-06T14:28:24.799Z,48.92
2023-05-06T14:30:51.996Z,44.78
2023-05-06T14:33:18.903Z,41.45
2023-05-06T14:35:50.317Z,47.53
2023-05-06T14:38:18.062Z,44.17
2023-05-06T14:40:45.176Z,43.30
2023-05-06T14:43:11.951Z,46.13
2023-05-06T14:45:39.165Z,46.83
2023-05-06T14:48:06.823Z,38.63
2023-05-06T14:50:35.741Z,38.17
2023-05-06T14:53:03.722Z,41.15
2023-05-06T14:55:31.390Z,34.38
2023-05-06T14:57:58.261Z,40.00
2023-05-06T15:00:25.628Z,36.15
2023-05-06T15:02:52.510Z,37.65
2023-05-06T15:05:22.626Z,39.40
2023-05-06T15:07:49.628Z,40.45
2023-05-06T15:10:17.117Z,45.47
2023-05-06T15:12:43.953Z,51.35
2023-05-06T15:15:11.635Z,38.92
2023-05-06T15:17:39.511Z,37.88
2023-05-06T15:20:08.682Z,37.65
2023-05-06T15:22:37.200Z,41.15
2023-05-06T15:25:07.163Z,43.72
2023-05-06T15:27:33.930Z,44.55
2023-05-06T15:30:04.387Z,41.55
2023-05-06T15:32:31.541Z,32.90
2023-05-06T15:34:58.766Z,32.55
2023-05-06T15:37:25.604Z,35.65
2023-05-06T15:39:52.688Z,30.83
2023-05-06T15:42:19.588Z,34.13
2023-05-06T15:44:48.417Z,32.40
2023-05-06T15:47:15.334Z,33.55
2023-05-06T15:49:49.442Z,36.75
2023-05-06T15:52:21.403Z,41.38
2023-05-06T15:54:49.981Z,38.78
2023-05-06T15:57:17.692Z,35.10
2023-05-06T15:59:44.680Z,36.13
2023-05-06T16:04:42.206Z,39.88
2023-05-06T16:07:09.455Z,41.83
2023-05-06T16:09:37.200Z,39.33
2023-05-06T16:12:05.044Z,39.72
2023-05-06T16:14:33.064Z,42.15
2023-05-06T16:16:59.954Z,44.50
2023-05-06T16:19:27.228Z,37.65
2023-05-06T16:21:54.611Z,34.65
2023-05-06T16:24:21.783Z,35.30
2023-05-06T16:26:48.673Z,38.20
2023-05-06T16:29:19.075Z,40.90
2023-05-06T16:31:46.982Z,37.72
2023-05-06T16:34:14.350Z,36.75
2023-05-06T16:36:41.581Z,35.38
2023-05-06T16:39:08.684Z,33.17
2023-05-06T16:41:35.682Z,37.70
2023-05-06T16:44:02.989Z,36.58
2023-05-06T16:46:30.064Z,40.28
2023-05-06T16:48:57.086Z,38.63
2023-05-06T16:51:24.840Z,50.17
2023-05-06T16:53:52.112Z,44.92
2023-05-06T16:56:18.883Z,46.90
2023-05-06T16:58:46.188Z,42.15
2023-05-06T17:01:13.205Z,43.20
2023-05-06T17:03:40.726Z,44.15
2023-05-06T17:06:08.160Z,35.53
2023-05-06T17:08:37.226Z,38.58
2023-05-06T17:11:06.625Z,37.85
2023-05-06T17:13:34.368Z,38.55
2023-05-06T17:16:01.231Z,32.63
2023-05-06T17:18:28.366Z,33.80
2023-05-06T17:20:56.889Z,36.10
2023-05-06T17:23:24.831Z,35.10
2023-05-06T17:25:51.916Z,37.10
2023-05-06T17:28:19.254Z,38.03
2023-05-06T17:30:46.694Z,43.35
2023-05-06T17:33:13.972Z,45.58
2023-05-06T17:35:40.839Z,45.83
2023-05-06T17:38:08.127Z,45.10
2023-05-06T17:40:34.937Z,43.47
2023-05-06T17:43:02.097Z,43.30
2023-05-06T17:45:29.288Z,37.38
2023-05-06T17:47:56.727Z,40.10
2023-05-06T17:50:23.691Z,42.63
2023-05-06T17:52:53.016Z,40.70
2023-05-06T17:55:22.092Z,42.90
2023-05-06T17:57:49.624Z,47.05
2023-05-06T18:00:17.006Z,44.05
2023-05-06T18:02:45.005Z,43.00
2023-05-06T18:05:13.453Z,43.40
2023-05-06T18:07:41.053Z,46.90
2023-05-06T18:10:09.030Z,49.25
2023-05-06T18:12:36.774Z,46.80
2023-05-06T18:15:03.829Z,40.13
2023-05-06T18:17:31.036Z,41.10
2023-05-06T18:19:57.887Z,43.20
2023-05-06T18:22:25.043Z,46.33
2023-05-06T18:24:59.595Z,44.22
2023-05-06T18:27:28.059Z,41.00
2023-05-06T18:29:55.016Z,42.28
2023-05-06T18:32:22.047Z,43.15
2023-05-06T18:34:48.902Z,50.50
2023-05-06T18:37:16.437Z,50.08
2023-05-06T18:39:43.560Z,50.00
2023-05-06T18:42:10.832Z,50.97
2023-05-06T18:44:38.024Z,44.40
2023-05-06T18:47:05.816Z,42.17
2023-05-06T18:49:32.720Z,40.90
2023-05-06T18:52:00.223Z,38.13
2023-05-06T18:54:27.260Z,37.38
2023-05-06T18:56:58.695Z,37.15
2023-05-06T18:59:26.056Z,36.30
2023-05-06T19:01:53.242Z,35.50
2023-05-06T19:04:20.104Z,36.08
2023-05-06T19:06:47.185Z,37.42
2023-05-06T19:09:14.207Z,36.78
2023-05-06T19:11:41.360Z,35.38
2023-05-06T19:14:08.071Z,36.83
2023-05-06T19:16:35.194Z,33.38
2023-05-06T19:19:03.445Z,32.35
2023-05-06T19:21:30.176Z,33.78
2023-05-06T19:23:59.927Z,28.45
2023-05-06T19:26:30.112Z,33.35
2023-05-06T19:28:57.157Z,30.15
2023-05-06T19:31:24.155Z,32.35
2023-05-06T19:33:51.433Z,35.00
2023-05-06T19:36:20.231Z,34.33
2023-05-06T19:38:48.763Z,33.30
2023-05-06T19:41:15.892Z,33.30
2023-05-06T19:43:46.019Z,35.33
2023-05-06T19:46:13.645Z,32.85
2023-05-06T19:48:41.317Z,30.33
2023-05-06T19:51:08.273Z,37.30
2023-05-06T19:53:36.112Z,31.48
2023-05-06T19:56:10.679Z,29.58
2023-05-06T19:58:38.776Z,36.90
2023-05-06T20:01:05.893Z,30.52
2023-05-06T20:03:41.458Z,35.22
2023-05-06T20:06:08.885Z,34.55
2023-05-06T20:08:36.157Z,35.67
2023-05-06T20:11:03.312Z,32.10
2023-05-06T20:13:30.482Z,32.30
2023-05-06T20:15:57.583Z,33.53
2023-05-06T20:18:25.492Z,34.88
2023-05-06T20:20:52.335Z,32.53
2023-05-06T20:23:19.345Z,36.58
2023-05-06T20:25:46.116Z,32.30
2023-05-06T20:28:13.216Z,31.50
2023-05-06T20:30:41.853Z,29.42
2023-05-06T20:33:09.675Z,28.20
2023-05-06T20:35:38.449Z,30.83
2023-05-06T20:38:06.711Z,29.55
2023-05-06T20:40:35.850Z,27.15
2023-05-06T20:43:03.461Z,28.10
2023-05-06T20:45:31.448Z,26.88
2023-05-06T20:47:58.938Z,27.40
2023-05-06T20:50:26.129Z,26.17
2023-05-06T20:52:54.610Z,25.38
2023-05-06T20:55:23.490Z,26.13
2023-05-06T20:57:51.039Z,26.27
2023-05-06T21:00:19.412Z,28.92
2023-05-06T21:02:46.625Z,27.90
2023-05-06T21:05:14.342Z,27.73
2023-05-06T21:07:41.821Z,25.25
2023-05-06T21:10:09.977Z,16.95
2023-05-06T21:12:37.207Z,16.60
2023-05-06T21:15:04.472Z,19.90
2023-05-06T21:17:31.848Z,15.13
2023-05-06T21:19:58.652Z,12.20
2023-05-06T21:22:26.028Z,11.35
2023-05-06T21:24:52.810Z,11.48
2023-05-06T21:27:19.826Z,11.98
2023-05-06T21:29:46.744Z,10.40
2023-05-06T21:32:13.977Z,10.18
2023-05-06T21:34:40.763Z,13.50
2023-05-06T21:37:07.842Z,14.15
2023-05-06T21:39:34.674Z,11.48
2023-05-06T21:42:01.715Z,11.00
2023-05-06T21:44:28.474Z,10.18
2023-05-06T21:46:55.932Z,12.32
2023-05-06T21:49:22.830Z,10.95
2023-05-06T21:51:50.202Z,13.07
2023-05-06T21:54:17.982Z,11.15
2023-05-06T21:56:45.165Z,12.95
2023-05-06T21:59:12.332Z,13.07
2023-05-06T22:01:39.745Z,11.77
2023-05-06T22:04:11.592Z,10.85
2023-05-06T22:06:39.865Z,13.18
2023-05-06T22:09:09.466Z,13.50
2023-05-06T22:11:38.567Z,15.82
2023-05-06T22:14:07.047Z,12.98
2023-05-06T22:16:35.615Z,15.05
2023-05-06T22:19:03.956Z,14.27
2023-05-06T22:21:34.031Z,17.05
2023-05-06T22:24:01.591Z,16.20
2023-05-06T22:26:28.901Z,16.17
2023-05-06T22:28:56.377Z,14.85
2023-05-06T22:31:24.770Z,16.45
2023-05-06T22:34:03.337Z,14.40
2023-05-06T22:36:33.599Z,16.98
2023-05-06T22:39:01.644Z,16.73
2023-05-06T22:41:30.069Z,15.68
2023-05-06T22:43:59.539Z,17.02
2023-05-06T22:46:27.047Z,19.90
2023-05-06T22:48:53.909Z,17.90
2023-05-06T22:51:21.233Z,16.33
2023-05-06T22:53:48.311Z,17.48
2023-05-06T22:56:23.310Z,17.63
2023-05-06T22:58:50.163Z,15.80
2023-05-06T23:01:18.213Z,19.02
2023-05-06T23:03:45.443Z,15.32
2023-05-06T23:06:12.528Z,19.70
2023-05-06T23:08:39.435Z,18.85
2023-05-06T23:11:06.751Z,19.92
2023-05-06T23:13:43.902Z,18.25
2023-05-06T23:16:11.291Z,16.48
2023-05-06T23:18:38.150Z,16.52
2023-05-06T23:21:05.492Z,17.85
2023-05-06T23:23:32.716Z,17.85
2023-05-06T23:26:00.776Z,16.20
2023-05-06T23:28:28.439Z,17.83
2023-05-06T23:30:56.080Z,19.02
2023-05-06T23:33:23.087Z,16.95
2023-05-06T23:35:50.177Z,17.52
2023-05-06T23:38:16.962Z,20.95
2023-05-06T23:40:45.010Z,20.80
2023-05-06T23:43:11.891Z,21.10
2023-05-06T23:45:39.022Z,19.90
2023-05-06T23:48:06.242Z,15.93
2023-05-06T23:50:33.460Z,15.23
2023-05-06T23:53:00.557Z,17.90
2023-05-06T23:55:28.983Z,19.02
2023-05-06T23:57:55.952Z,14.60
